Data for 02/13/2010

Time Sea-Level Adjusted Pressure Absolute Pressure Temperature Relative Humidity Dew Point   
(mb) (inHg) (mb) (inHg) (C) (F) (%) (C) (F)
00:05 1015 29.97 844 24.92 1.2 34.1 83 -1.4 29.4
00:10 1015 29.97 844 24.92 1.3 34.3 83 -1.3 29.6
00:15 1015 29.97 845 24.95 1.3 34.3 84 -1.1 30.1
00:20 1015 29.97 845 24.95 1.2 34.1 85 -1.1 30
00:25 1015 29.97 845 24.95 1.1 34 85 -1.1 29.9
00:30 1015 29.97 845 24.95 1.1 34 85 -1.1 30
00:35 1015 29.97 845 24.95 1.1 34 85 -1.1 30
00:40 1015 29.97 845 24.95 1 33.8 86 -1.1 30.1
00:45 1015 29.97 845 24.95 0.8 33.5 87 -1.1 30.1
00:50 1015 29.97 845 24.95 0.7 33.2 88 -1.1 30
00:55 1015 29.97 845 24.95 0.6 33.1 88 -1.1 30.1
01:00 1015 29.97 845 24.95 0.5 33 89 -1 30.2
01:05 1015 29.97 845 24.95 0.5 32.9 90 -1 30.3
01:10 1015 29.97 845 24.95 0.6 33 90 -0.9 30.4
01:15 1016 30 845 24.95 0.6 33.1 90 -0.8 30.5
01:20 1016 30 845 24.95 0.7 33.3 89 -0.9 30.5
01:25 1016 30 845 24.95 0.9 33.6 88 -0.8 30.5
01:30 1016 30 845 24.95 0.9 33.7 88 -0.8 30.6
01:35 1016 30 845 24.95 0.9 33.7 87 -0.9 30.3
01:40 1016 30 845 24.95 1 33.8 87 -1 30.3
01:45 1016 30 845 24.95 1 33.8 88 -0.8 30.5
01:50 1016 30 845 24.95 0.9 33.6 87 -1 30.1
01:55 1016 30 845 24.95 0.9 33.7 86 -1.1 30
02:00 1016 30 845 24.95 0.9 33.6 86 -1.1 30
02:05 1016 30 845 24.95 0.8 33.4 88 -1 30.2
02:10 1016 30 845 24.95 0.7 33.3 88 -1 30.1
02:15 1016 30 845 24.95 0.7 33.3 88 -1 30.1
02:20 1016 30 845 24.95 0.7 33.2 88 -1.1 30
02:25 1016 30 845 24.95 0.7 33.2 88 -1 30.2
02:30 1016 30 845 24.95 0.7 33.3 87 -1.2 29.9
02:35 1016 30 845 24.95 0.8 33.4 87 -1.2 29.8
02:40 1016 30 845 24.95 0.9 33.6 85 -1.3 29.6
02:45 1016 30 845 24.95 1 33.8 85 -1.2 29.9
02:50 1016 30 845 24.95 1 33.9 85 -1.3 29.7
02:55 1016 30 845 24.95 1.1 34 84 -1.3 29.7
03:00 1016 30 845 24.95 1.1 34 84 -1.3 29.7
03:05 1016 30 845 24.95 1.1 34 84 -1.3 29.6
03:10 1016 30 845 24.95 1.1 34 84 -1.2 29.8
03:15 1016 30 845 24.95 1 33.9 85 -1.2 29.8
03:20 1016 30 845 24.95 1 33.8 86 -1.1 29.9
03:25 1016 30 845 24.95 0.8 33.5 87 -1.1 30
03:30 1016 30 845 24.95 0.8 33.4 87 -1.1 30
03:35 1016 30 846 24.98 0.8 33.4 86 -1.3 29.7
03:40 1016 30 846 24.98 1 33.8 86 -1.1 30
03:45 1016 30 846 24.98 1 33.8 87 -0.9 30.3
03:50 1016 30 846 24.98 0.9 33.5 88 -0.9 30.3
03:55 1016 30 846 24.98 0.8 33.4 89 -0.8 30.5
04:00 1016 30 846 24.98 0.7 33.2 90 -0.9 30.5
04:05 1016 30 846 24.98 0.5 32.9 91 -0.8 30.6
04:10 1016 30 846 24.98 0.4 32.6 92 -0.8 30.6
04:15 1016 30 846 24.98 0.3 32.5 92 -0.8 30.5
04:20 1017 30.03 846 24.98 0.2 32.4 93 -0.8 30.6
04:25 1017 30.03 846 24.98 0.3 32.6 93 -0.7 30.8
04:30 1017 30.03 846 24.98 0.4 32.8 91 -0.9 30.4
04:35 1017 30.03 846 24.98 0.4 32.8 89 -1.1 30
04:40 1017 30.03 846 24.98 0.5 32.8 84 -1.9 28.6
04:45 1017 30.03 846 24.98 0.7 33.2 79 -2.5 27.5
04:50 1017 30.03 846 24.98 0.9 33.6 81 -2.1 28.3
04:55 1017 30.03 846 24.98 0.9 33.6 81 -2 28.4
05:00 1017 30.03 846 24.98 0.9 33.6 88 -0.9 30.3
05:05 1017 30.03 846 24.98 0.1 32.2 94 -0.8 30.6
05:10 1017 30.03 846 24.98 0.1 32.2 90 -1.3 29.6
05:15 1017 30.03 846 24.98 0.1 32.1 93 -0.9 30.4
05:20 1017 30.03 846 24.98 0 32 93 -1 30.3
05:25 1017 30.03 846 24.98 0.2 32.4 90 -1.2 29.8
05:30 1017 30.03 847 25.01 0.4 32.6 89 -1.2 29.8
05:35 1017 30.03 847 25.01 0.4 32.6 88 -1.3 29.6
05:40 1017 30.03 847 25.01 0.4 32.7 87 -1.5 29.3
05:45 1017 30.03 847 25.01 0.4 32.8 87 -1.5 29.2
05:50 1017 30.03 847 25.01 0.4 32.8 86 -1.6 29.2
05:55 1017 30.03 847 25.01 0.4 32.8 82 -2.3 27.8
06:00 1018 30.06 847 25.01 0.6 33 79 -2.6 27.3
06:05 1018 30.06 847 25.01 0.7 33.2 78 -2.8 27
06:10 1017 30.03 847 25.01 0.8 33.4 76 -3 26.6
06:15 1017 30.03 847 25.01 0.8 33.5 75 -3.2 26.3
06:20 1017 30.03 847 25.01 0.8 33.5 74 -3.3 26.1
06:25 1017 30.03 847 25.01 0.9 33.6 73 -3.3 26
06:30 1017 30.03 847 25.01 1 33.8 70 -4 24.9
06:35 1017 30.03 847 25.01 1 33.9 74 -3.1 26.4
06:40 1017 30.03 847 25.01 0.6 33 82 -2.1 28.2
06:45 1017 30.03 847 25.01 -0 31.9 86 -2.2 28.1
06:50 1017 30.03 847 25.01 -0.3 31.5 88 -2 28.5
06:55 1018 30.06 847 25.01 -0.4 31.3 88 -2.1 28.2
07:00 1018 30.06 847 25.01 -0.4 31.4 88 -2.1 28.2
07:05 1018 30.06 847 25.01 -0.4 31.4 87 -2.2 28
07:10 1018 30.06 847 25.01 -0.3 31.4 86 -2.3 27.8
07:15 1018 30.06 847 25.01 -0.3 31.5 85 -2.5 27.5
07:20 1018 30.06 847 25.01 -0.1 31.9 81 -2.9 26.7
07:25 1018 30.06 847 25.01 0.4 32.7 79 -2.8 26.9
07:30 1018 30.06 847 25.01 0.6 33 77 -3.1 26.5
07:35 1018 30.06 847 25.01 0.7 33.3 74 -3.3 26.1
07:40 1018 30.06 848 25.04 0.8 33.4 77 -2.9 26.8
07:45 1018 30.06 848 25.04 0.6 33.1 78 -2.9 26.8
07:50 1018 30.06 848 25.04 0.6 33.1 79 -2.7 27.2
07:55 1018 30.06 848 25.04 0.6 33.1 78 -2.7 27.1
08:00 1019 30.09 848 25.04 0.6 33.2 78 -2.8 26.9
08:05 1019 30.09 848 25.04 0.6 33.1 79 -2.6 27.4
08:10 1019 30.09 848 25.04 0.6 33.1 82 -2.2 28.1
08:15 1019 30.09 848 25.04 0.6 33.1 82 -2.1 28.2
08:20 1019 30.09 848 25.04 0.1 32.2 87 -1.8 28.8
08:25 1019 30.09 848 25.04 -0.3 31.5 89 -1.9 28.6
08:30 1019 30.09 848 25.04 -0.1 31.8 87 -2.1 28.3
08:35 1019 30.09 848 25.04 -0.1 31.9 88 -1.8 28.7
08:40 1019 30.09 848 25.04 0.1 32.1 87 -1.9 28.7
08:45 1019 30.09 848 25.04 0.3 32.6 77 -3.2 26.2
08:50 1019 30.09 848 25.04 0.7 33.3 84 -1.7 28.9
08:55 1019 30.09 848 25.04 0.1 32.1 79 -3.1 26.4
09:00 1019 30.09 848 25.04 0.3 32.5 84 -2.2 28.1
09:05 1019 30.09 848 25.04 0.5 33 80 -2.6 27.4
09:10 1019 30.09 848 25.04 0.9 33.7 77 -2.6 27.3
09:15 1019 30.09 848 25.04 1.1 34 75 -2.8 27
09:20 1019 30.09 848 25.04 1.2 34.1 73 -3.1 26.4
09:25 1019 30.09 849 25.07 1.3 34.3 72 -3.2 26.2
09:30 1019 30.09 848 25.04 1.3 34.3 72 -3.2 26.2
09:35 1019 30.09 849 25.07 1.3 34.4 70 -3.5 25.6
09:40 1019 30.09 849 25.07 1.5 34.7 66 -4.2 24.4
09:45 1019 30.09 849 25.07 1.4 34.5 66 -4.2 24.4
09:50 1019 30.09 849 25.07 1.3 34.4 66 -4.3 24.3
09:55 1019 30.09 849 25.07 1.5 34.7 64 -4.6 23.7
10:00 1020 30.12 849 25.07 1.7 35 63 -4.6 23.7
10:05 1020 30.12 849 25.07 1.9 35.4 61 -4.9 23.3
10:10 1020 30.12 849 25.07 2.1 35.7 61 -4.8 23.4
10:15 1020 30.12 849 25.07 2.2 35.9 60 -4.9 23.2
10:20 1020 30.12 849 25.07 2.4 36.3 58 -5.1 22.7
10:25 1020 30.12 849 25.07 2.4 36.4 59 -4.9 23.2
10:30 1020 30.12 849 25.07 2.5 36.6 58 -4.9 23.2
10:35 1020 30.12 849 25.07 2.7 36.8 58 -4.8 23.3
10:40 1020 30.12 849 25.07 2.8 37.1 55 -5.3 22.5
10:45 1020 30.12 849 25.07 2.9 37.3 57 -4.9 23.3
10:50 1020 30.12 849 25.07 3 37.4 57 -4.6 23.7
10:55 1020 30.12 849 25.07 3.1 37.6 57 -4.6 23.7
11:00 1020 30.12 849 25.07 3.2 37.7 56 -4.7 23.6
11:05 1020 30.12 849 25.07 3.2 37.8 57 -4.5 23.8
11:10 1020 30.12 849 25.07 3.4 38.1 55 -4.8 23.3
11:15 1020 30.12 849 25.07 3.4 38.1 55 -4.9 23.2
11:20 1020 30.12 849 25.07 3.5 38.3 57 -4.3 24.2
11:25 1020 30.12 849 25.07 3.4 38.1 55 -4.7 23.6
11:30 1020 30.12 849 25.07 3.3 37.9 56 -4.6 23.7
11:35 1020 30.12 849 25.07 3.2 37.7 54 -5.2 22.6
11:40 1020 30.12 849 25.07 2.9 37.3 56 -5.1 22.9
11:45 1020 30.12 849 25.07 3.2 37.7 55 -4.9 23.1
11:50 1020 30.12 849 25.07 3.3 37.9 55 -4.9 23.2
11:55 1020 30.12 849 25.07 3.3 38 56 -4.7 23.5
12:00 1020 30.12 849 25.07 3.4 38.1 55 -4.7 23.6
12:05 1020 30.12 849 25.07 3.5 38.4 54 -4.9 23.2
12:10 1020 30.12 849 25.07 3.6 38.5 54 -5 23.1
12:15 1020 30.12 849 25.07 3.6 38.4 54 -4.9 23.1
12:20 1020 30.12 849 25.07 3.7 38.6 53 -4.9 23.1
12:25 1020 30.12 849 25.07 3.9 39 52 -5 22.9
12:30 1020 30.12 849 25.07 4 39.2 53 -4.8 23.3
12:35 1020 30.12 849 25.07 3.9 39.1 52 -4.9 23.1
12:40 1020 30.12 849 25.07 3.8 38.8 54 -4.6 23.7
12:45 1020 30.12 849 25.07 3.7 38.7 53 -4.9 23.1
12:50 1020 30.12 849 25.07 3.7 38.6 54 -4.8 23.3
12:55 1020 30.12 849 25.07 3.8 38.8 53 -5 23
13:00 1020 30.12 849 25.07 3.7 38.7 54 -4.6 23.6
13:05 1020 30.12 849 25.07 3.8 38.9 54 -4.6 23.7
13:10 1020 30.12 849 25.07 3.8 38.8 53 -4.8 23.3
13:15 1020 30.12 849 25.07 3.9 39.1 55 -4.4 24.1
13:20 1020 30.12 849 25.07 4.1 39.3 53 -4.6 23.7
13:25 1020 30.12 849 25.07 3.9 39 54 -4.6 23.7
13:30 1020 30.12 849 25.07 3.8 38.8 54 -4.7 23.6
13:35 1020 30.12 849 25.07 3.9 39 53 -4.7 23.5
13:40 1020 30.12 849 25.07 4 39.2 54 -4.5 23.8
13:45 1020 30.12 849 25.07 3.9 39 54 -4.6 23.7
13:50 1020 30.12 849 25.07 3.9 39.1 54 -4.6 23.7
13:55 1020 30.12 849 25.07 3.9 39 54 -4.5 23.9
14:00 1020 30.12 849 25.07 4.1 39.3 54 -4.4 24.1
14:05 1020 30.12 849 25.07 4.2 39.6 52 -4.7 23.5
14:10 1020 30.12 849 25.07 4.1 39.5 53 -4.5 23.9
14:15 1020 30.12 849 25.07 4 39.2 53 -4.6 23.6
14:20 1020 30.12 849 25.07 4.1 39.3 53 -4.7 23.6
14:25 1020 30.12 849 25.07 4.1 39.3 53 -4.6 23.6
14:30 1020 30.12 849 25.07 4 39.1 52 -4.9 23.2
14:35 1020 30.12 849 25.07 3.9 39.1 54 -4.6 23.7
14:40 1020 30.12 849 25.07 4 39.1 54 -4.5 23.9
14:45 1020 30.12 849 25.07 4 39.2 53 -4.6 23.7
14:50 1020 30.12 849 25.07 3.9 39 55 -4.4 24.1
14:55 1020 30.12 849 25.07 3.8 38.8 55 -4.5 23.9
15:00 1020 30.12 849 25.07 3.9 39 54 -4.5 24
15:05 1020 30.12 849 25.07 3.9 39.1 55 -4.3 24.2
15:10 1020 30.12 849 25.07 3.8 38.9 55 -4.4 24.1
15:15 1020 30.12 850 25.1 3.9 39.1 54 -4.4 24
15:20 1020 30.12 850 25.1 4 39.2 54 -4.5 24
15:25 1020 30.12 850 25.1 4 39.3 53 -4.8 23.4
15:30 1020 30.12 850 25.1 3.9 39.1 54 -4.6 23.7
15:35 1021 30.15 850 25.1 3.9 38.9 54 -4.6 23.6
15:40 1021 30.15 850 25.1 3.6 38.5 55 -4.7 23.6
15:45 1021 30.15 850 25.1 3.5 38.4 55 -4.7 23.5
15:50 1021 30.15 850 25.1 3.7 38.6 54 -4.7 23.6
15:55 1021 30.15 850 25.1 3.7 38.7 53 -5 23
16:00 1021 30.15 850 25.1 3.7 38.6 54 -4.7 23.5
16:05 1021 30.15 850 25.1 3.7 38.6 54 -4.7 23.5
16:10 1021 30.15 850 25.1 3.7 38.7 54 -4.7 23.5
16:15 1021 30.15 850 25.1 3.8 38.8 54 -4.6 23.7
16:20 1021 30.15 850 25.1 3.8 38.8 54 -4.7 23.6
16:25 1021 30.15 850 25.1 3.7 38.6 55 -4.4 24
16:30 1021 30.15 850 25.1 3.6 38.5 55 -4.6 23.8
16:35 1021 30.15 850 25.1 3.4 38.2 56 -4.5 23.9
16:40 1021 30.15 850 25.1 3.4 38.1 53 -5.2 22.6
16:45 1021 30.15 850 25.1 3.5 38.3 53 -5.3 22.5
16:50 1021 30.15 850 25.1 3.5 38.4 53 -5.1 22.8
16:55 1021 30.15 850 25.1 3.5 38.3 56 -4.6 23.8
17:00 1021 30.15 850 25.1 3.3 38 55 -4.8 23.3
17:05 1021 30.15 850 25.1 3.3 37.9 55 -4.9 23.1
17:10 1021 30.15 850 25.1 3.2 37.8 55 -5 23
17:15 1021 30.15 850 25.1 3.2 37.7 55 -5.1 22.8
17:20 1021 30.15 850 25.1 3.1 37.6 55 -5 22.9
17:25 1021 30.15 850 25.1 3 37.4 56 -5 23
17:30 1021 30.15 850 25.1 2.9 37.3 56 -5 23
17:35 1021 30.15 851 25.13 2.9 37.2 56 -5.1 22.8
17:40 1021 30.15 851 25.13 2.8 37 57 -5 23
17:45 1021 30.15 851 25.13 2.6 36.7 58 -4.9 23.2
17:50 1021 30.15 851 25.13 2.4 36.4 58 -4.9 23.1
17:55 1021 30.15 851 25.13 2.3 36.2 59 -4.9 23.1
18:00 1021 30.15 851 25.13 2.2 36 59 -4.9 23.1
18:05 1021 30.15 851 25.13 2.2 36 59 -4.9 23.2
18:10 1022 30.18 851 25.13 2.2 35.9 59 -4.9 23.1
18:15 1022 30.18 851 25.13 2.1 35.9 59 -5 23
18:20 1022 30.18 851 25.13 2.2 36 60 -4.8 23.4
18:25 1022 30.18 851 25.13 2.2 35.9 61 -4.7 23.6
18:30 1022 30.18 851 25.13 2.1 35.8 61 -4.7 23.6
18:35 1022 30.18 851 25.13 2 35.7 60 -4.8 23.3
18:40 1022 30.18 851 25.13 2.1 35.7 60 -5 23.1
18:45 1022 30.18 851 25.13 2 35.6 61 -4.7 23.6
18:50 1022 30.18 851 25.13 2 35.6 61 -4.8 23.4
18:55 1022 30.18 851 25.13 1.9 35.5 62 -4.6 23.6
19:00 1022 30.18 851 25.13 1.9 35.3 62 -4.6 23.8
19:05 1022 30.18 851 25.13 1.7 35.1 63 -4.5 23.8
19:10 1022 30.18 851 25.13 1.6 35 64 -4.4 24
19:15 1022 30.18 851 25.13 1.7 35 64 -4.3 24.2
19:20 1022 30.18 851 25.13 1.6 34.8 66 -4.2 24.5
19:25 1022 30.18 851 25.13 1.5 34.7 66 -4.2 24.4
19:30 1022 30.18 851 25.13 1.5 34.6 64 -4.6 23.8
19:35 1022 30.18 852 25.16 1.5 34.7 64 -4.5 23.8
19:40 1022 30.18 852 25.16 1.5 34.7 65 -4.4 24.1
19:45 1022 30.18 852 25.16 1.5 34.6 65 -4.3 24.2
19:50 1022 30.18 852 25.16 1.4 34.5 65 -4.5 23.9
19:55 1022 30.18 852 25.16 1.4 34.5 65 -4.4 24
20:00 1022 30.18 852 25.16 1.4 34.4 65 -4.5 24
20:05 1022 30.18 852 25.16 1.4 34.6 65 -4.4 24.2
20:10 1023 30.21 852 25.16 1.4 34.5 66 -4.3 24.3
20:15 1023 30.21 852 25.16 1.2 34.1 67 -4.2 24.4
20:20 1023 30.21 852 25.16 0.5 32.9 71 -4.2 24.5
20:25 1023 30.21 852 25.16 0.2 32.4 71 -4.5 23.8
20:30 1023 30.21 852 25.16 0 32.1 72 -4.4 24
20:35 1023 30.21 852 25.16 -0 32 71 -4.7 23.5
20:40 1023 30.21 852 25.16 0 32 71 -4.6 23.7
20:45 1023 30.21 852 25.16 0.2 32.3 71 -4.4 24.1
20:50 1023 30.21 852 25.16 0.4 32.7 70 -4.4 24
20:55 1023 30.21 852 25.16 0.5 32.9 69 -4.5 23.9
21:00 1023 30.21 852 25.16 0.5 33 70 -4.3 24.3
21:05 1023 30.21 852 25.16 0.3 32.6 72 -4.1 24.5
21:10 1023 30.21 852 25.16 0.2 32.4 71 -4.4 24.1
21:15 1023 30.21 852 25.16 0.1 32.1 71 -4.6 23.7
21:20 1023 30.21 852 25.16 0.2 32.3 71 -4.5 23.8
21:25 1023 30.21 852 25.16 0.4 32.8 68 -4.7 23.5
21:30 1023 30.21 852 25.16 0.6 33.2 68 -4.6 23.7
21:35 1023 30.21 852 25.16 0.6 33.1 68 -4.5 23.8
21:40 1023 30.21 852 25.16 0.6 33.1 69 -4.5 24
21:45 1023 30.21 852 25.16 0.6 33.1 69 -4.5 23.9
21:50 1023 30.21 852 25.16 0.8 33.4 69 -4.3 24.3
21:55 1023 30.21 852 25.16 0.8 33.5 70 -4 24.8
22:00 1023 30.21 852 25.16 0.8 33.5 71 -3.9 25
22:05 1023 30.21 852 25.16 0.8 33.4 71 -3.8 25.1
22:10 1023 30.21 852 25.16 0.8 33.5 71 -3.8 25.1
22:15 1023 30.21 852 25.16 0.8 33.4 73 -3.5 25.7
22:20 1023 30.21 852 25.16 0.4 32.6 77 -3.3 26.1
22:25 1023 30.21 852 25.16 0 32 78 -3.3 26.1
22:30 1023 30.21 852 25.16 -0.1 31.8 79 -3.3 26
22:35 1023 30.21 852 25.16 -0.3 31.5 80 -3.4 25.9
22:40 1023 30.21 852 25.16 -0.3 31.5 80 -3.4 26
22:45 1023 30.21 852 25.16 -0.3 31.4 81 -3.3 26.1
22:50 1023 30.21 852 25.16 -0.2 31.7 79 -3.4 25.8
22:55 1023 30.21 852 25.16 0 32.1 79 -3.1 26.4
23:00 1023 30.21 853 25.19 -0.3 31.4 79 -3.5 25.8
23:05 1023 30.21 853 25.19 -0.6 30.8 79 -3.9 25
23:10 1023 30.21 853 25.19 -0.9 30.3 77 -4.4 24
23:15 1024 30.24 853 25.19 -1.6 29 78 -5 23.1
23:20 1024 30.24 853 25.19 -2.2 28 79 -5.5 22.2
23:25 1024 30.24 853 25.19 -2.7 27.2 79 -5.9 21.4
23:30 1024 30.24 853 25.19 -2.9 26.8 79 -6 21.1
23:35 1024 30.24 853 25.19 -3 26.6 79 -6.1 21
23:40 1024 30.24 853 25.19 -3.1 26.4 79 -6.3 20.7
23:45 1024 30.24 853 25.19 -3.2 26.2 79 -6.4 20.5
23:50 1024 30.24 853 25.19 -3.3 26 79 -6.5 20.4
23:55 1024 30.24 853 25.19 -3.6 25.6 79 -6.7 20
24:00 1024 30.24 853 25.19 -3.7 25.4 79 -6.7 19.9